Terminal Aerodrome Forecast
Issued by NWS

Home | Current Version | Previous Version | Text Only | Print | Product List | Glossary On
Versions: 1 2 3 4 5 6 7 8 9 10 11 12 13 14 15 16
000
FTUS43 KILX 191130
TAFDEC
TAF
KDEC 191130Z 1912/2012 09006KT P6SM SCT060 OVC120
     FM191300 08008KT P6SM VCSH OVC050
     FM191500 04010KT 4SM -RA BR OVC020
     FM200300 25010KT 5SM BR VCSH OVC030=

USA.gov is the U.S. government's official web portal to all federal, state and local government web resources and services.